createdAt,value
2022-08-03T00:00:21.586Z,28.07
2022-08-03T00:02:48.162Z,27.68
2022-08-03T00:05:14.825Z,27.86
2022-08-03T00:07:41.787Z,27.75
2022-08-03T00:10:09.179Z,27.82
2022-08-03T00:12:36.494Z,27.83
2022-08-03T00:15:03.958Z,27.77
2022-08-03T00:17:52.486Z,27.78
2022-08-03T00:20:23.834Z,27.23
2022-08-03T00:22:50.694Z,27.29
2022-08-03T00:25:18.142Z,27.29
2022-08-03T00:27:44.936Z,27.30
2022-08-03T00:30:12.189Z,27.22
2022-08-03T00:32:44.303Z,27.33
2022-08-03T00:35:32.518Z,27.25
2022-08-03T00:37:59.799Z,27.29
2022-08-03T00:40:26.594Z,27.29
2022-08-03T00:42:54.578Z,27.27
2022-08-03T00:45:25.148Z,26.70
2022-08-03T00:47:52.104Z,26.54
2022-08-03T00:50:19.853Z,26.56
2022-08-03T00:52:47.322Z,26.42
2022-08-03T00:55:14.191Z,26.28
2022-08-03T00:57:42.386Z,26.34
2022-08-03T01:00:11.281Z,26.44
2022-08-03T01:02:39.442Z,26.30
2022-08-03T01:05:07.827Z,26.13
2022-08-03T01:07:43.966Z,26.14
2022-08-03T01:10:34.414Z,26.06
2022-08-03T01:13:59.882Z,26.04
2022-08-03T01:16:36.532Z,25.98
2022-08-03T01:19:16.171Z,26.01
2022-08-03T01:21:59.638Z,26.08
2022-08-03T01:24:32.132Z,26.31
2022-08-03T01:27:26.006Z,26.36
2022-08-03T01:30:04.482Z,26.01
2022-08-03T01:32:59.700Z,26.30
2022-08-03T01:35:28.070Z,26.17
2022-08-03T01:38:04.864Z,25.94
2022-08-03T01:40:34.080Z,25.73
2022-08-03T01:43:03.186Z,25.91
2022-08-03T01:45:34.197Z,25.73
2022-08-03T01:48:02.880Z,25.74
2022-08-03T01:50:31.832Z,25.63
2022-08-03T01:52:59.205Z,25.58
2022-08-03T01:55:29.965Z,25.63
2022-08-03T01:58:05.504Z,25.58
2022-08-03T02:00:35.693Z,25.49
2022-08-03T02:03:07.103Z,25.51
2022-08-03T02:05:35.233Z,25.47
2022-08-03T02:08:04.825Z,25.35
2022-08-03T02:10:35.838Z,25.32
2022-08-03T02:13:05.188Z,25.31
2022-08-03T02:15:33.850Z,25.26
2022-08-03T02:18:02.471Z,25.27
2022-08-03T02:20:33.158Z,25.26
2022-08-03T02:22:59.846Z,25.21
2022-08-03T02:25:26.683Z,25.24
2022-08-03T02:27:57.839Z,25.21
2022-08-03T02:30:31.036Z,25.34
2022-08-03T02:32:59.355Z,25.58
2022-08-03T02:35:29.601Z,25.70
2022-08-03T02:38:04.634Z,25.44
2022-08-03T02:40:33.118Z,25.67
2022-08-03T02:43:03.664Z,25.61
2022-08-03T02:45:32.891Z,25.52
2022-08-03T02:48:04.139Z,25.43
2022-08-03T02:50:33.512Z,25.50
2022-08-03T02:53:03.093Z,25.34
2022-08-03T02:55:31.550Z,25.27
2022-08-03T02:58:01.704Z,25.34
2022-08-03T03:00:30.890Z,25.43
2022-08-03T03:03:00.405Z,25.38
2022-08-03T03:05:54.449Z,25.26
2022-08-03T03:08:18.741Z,24.96
2022-08-03T03:10:48.207Z,25.07
2022-08-03T03:13:16.069Z,25.17
2022-08-03T03:15:45.775Z,24.82
2022-08-03T03:18:13.001Z,24.60
2022-08-03T03:20:41.047Z,24.44
2022-08-03T03:23:09.628Z,24.82
2022-08-03T03:25:37.002Z,24.98
2022-08-03T03:28:06.436Z,25.01
2022-08-03T03:30:33.493Z,24.88
2022-08-03T03:33:00.266Z,24.76
2022-08-03T03:35:27.878Z,24.69
2022-08-03T03:37:54.860Z,24.78
2022-08-03T03:40:22.402Z,24.71
2022-08-03T03:42:49.972Z,24.94
2022-08-03T03:45:17.850Z,24.77
2022-08-03T03:47:44.480Z,24.54
2022-08-03T03:50:15.459Z,24.40
2022-08-03T03:52:42.391Z,24.32
2022-08-03T03:55:09.099Z,24.43
2022-08-03T03:57:35.685Z,24.30
2022-08-03T04:00:02.316Z,24.24
2022-08-03T04:02:28.950Z,24.20
2022-08-03T04:05:14.013Z,24.34
2022-08-03T04:08:18.763Z,24.25
2022-08-03T04:11:01.160Z,24.16
2022-08-03T04:13:41.100Z,24.09
2022-08-03T04:16:12.223Z,24.11
2022-08-03T04:18:42.179Z,24.20
2022-08-03T04:21:12.198Z,24.50
2022-08-03T04:23:45.115Z,24.38
2022-08-03T04:26:15.143Z,24.12
2022-08-03T04:28:44.819Z,24.00
2022-08-03T04:31:12.338Z,24.03
2022-08-03T04:33:41.191Z,24.16
2022-08-03T04:36:10.899Z,24.39
2022-08-03T04:38:52.489Z,24.46
2022-08-03T04:41:22.811Z,24.52
2022-08-03T04:43:51.963Z,24.28
2022-08-03T04:46:22.608Z,24.35
2022-08-03T04:48:49.988Z,24.26
2022-08-03T04:51:17.174Z,23.74
2022-08-03T04:53:44.398Z,23.51
2022-08-03T04:56:11.156Z,23.46
2022-08-03T04:58:37.850Z,23.52
2022-08-03T05:01:04.479Z,23.76
2022-08-03T05:03:31.937Z,24.12
2022-08-03T05:06:01.781Z,24.01
2022-08-03T05:08:36.898Z,23.80
2022-08-03T05:11:13.186Z,23.66
2022-08-03T05:13:39.747Z,23.58
2022-08-03T05:16:07.673Z,23.66
2022-08-03T05:18:34.282Z,23.58
2022-08-03T05:21:00.839Z,23.53
2022-08-03T05:23:27.726Z,23.58
2022-08-03T05:25:54.239Z,23.59
2022-08-03T05:28:20.837Z,23.62
2022-08-03T05:30:47.437Z,23.64
2022-08-03T05:33:14.343Z,23.50
2022-08-03T05:36:00.462Z,23.61
2022-08-03T05:38:28.685Z,23.63
2022-08-03T05:41:20.182Z,23.70
2022-08-03T05:43:44.135Z,23.86
2022-08-03T05:46:12.157Z,23.87
2022-08-03T05:48:40.002Z,23.82
2022-08-03T05:51:11.671Z,23.99
2022-08-03T05:53:39.798Z,24.03
2022-08-03T05:56:13.928Z,24.08
2022-08-03T05:58:46.155Z,24.22
2022-08-03T06:01:12.880Z,24.19
2022-08-03T06:03:39.702Z,24.25
2022-08-03T06:06:06.354Z,24.28
2022-08-03T06:08:33.025Z,24.38
2022-08-03T06:10:59.857Z,24.37
2022-08-03T06:13:26.431Z,24.53
2022-08-03T06:15:52.986Z,24.52
2022-08-03T06:18:20.019Z,24.53
2022-08-03T06:20:47.184Z,24.55
2022-08-03T06:23:18.033Z,24.59
2022-08-03T06:25:45.279Z,24.69
2022-08-03T06:31:01.034Z,24.84
2022-08-03T06:34:30.060Z,24.95
2022-08-03T06:36:14.695Z,24.98
2022-08-03T06:38:41.852Z,25.04
2022-08-03T06:41:08.445Z,25.06
2022-08-03T06:43:37.641Z,25.07
2022-08-03T06:46:05.609Z,25.14
2022-08-03T06:48:32.425Z,25.18
2022-08-03T06:50:59.422Z,25.28
2022-08-03T06:53:27.006Z,25.39
2022-08-03T06:55:55.007Z,25.40
2022-08-03T06:58:23.016Z,25.38
2022-08-03T07:00:49.770Z,25.46
2022-08-03T07:03:16.840Z,25.49
2022-08-03T07:05:46.568Z,25.57
2022-08-03T07:08:14.089Z,25.63
2022-08-03T07:10:40.867Z,25.77
2022-08-03T07:13:07.676Z,25.84
2022-08-03T07:15:38.323Z,25.84
2022-08-03T07:18:27.636Z,25.91
2022-08-03T07:20:58.484Z,25.97
2022-08-03T07:23:25.767Z,26.07
2022-08-03T07:25:52.596Z,26.17
2022-08-03T07:28:19.838Z,26.27
2022-08-03T07:30:46.481Z,26.33
2022-08-03T07:33:13.715Z,26.35
2022-08-03T07:35:40.279Z,26.41
2022-08-03T07:38:06.912Z,26.42
2022-08-03T07:40:33.515Z,26.47
2022-08-03T07:43:00.470Z,26.49
2022-08-03T07:45:27.114Z,26.55
2022-08-03T07:47:54.542Z,26.62
2022-08-03T07:50:22.386Z,26.63
2022-08-03T07:52:50.227Z,26.66
2022-08-03T07:55:21.964Z,26.70
2022-08-03T07:58:16.501Z,26.75
2022-08-03T08:00:45.906Z,26.79
2022-08-03T08:03:13.256Z,26.90
2022-08-03T08:05:39.877Z,26.97
2022-08-03T08:08:06.902Z,27.00
2022-08-03T08:10:33.935Z,27.04
2022-08-03T08:13:01.821Z,27.06
2022-08-03T08:15:28.510Z,27.12
2022-08-03T08:17:57.248Z,27.10
2022-08-03T08:20:27.923Z,27.10
2022-08-03T08:22:57.085Z,27.15
2022-08-03T08:25:26.654Z,27.29
2022-08-03T08:28:29.648Z,27.33
2022-08-03T08:30:40.607Z,27.40
2022-08-03T08:33:08.635Z,27.45
2022-08-03T08:35:37.287Z,27.52
2022-08-03T08:38:05.593Z,27.59
2022-08-03T08:40:33.487Z,27.80
2022-08-03T08:43:00.186Z,27.91
2022-08-03T08:45:27.678Z,28.00
2022-08-03T08:48:01.044Z,28.15
2022-08-03T08:50:30.715Z,28.17
2022-08-03T08:53:02.834Z,28.17
2022-08-03T08:55:30.105Z,28.34
2022-08-03T08:58:20.880Z,28.41
2022-08-03T09:00:48.528Z,28.56
2022-08-03T09:03:22.681Z,28.58
2022-08-03T09:05:58.825Z,28.62
2022-08-03T09:08:26.051Z,28.69
2022-08-03T09:10:53.548Z,28.66
2022-08-03T09:13:20.141Z,28.65
2022-08-03T09:16:00.966Z,28.82
2022-08-03T09:18:32.700Z,28.93
2022-08-03T09:21:32.109Z,28.93
2022-08-03T09:24:03.293Z,29.03
2022-08-03T09:26:32.249Z,29.10
2022-08-03T09:29:05.678Z,29.27
2022-08-03T09:31:46.990Z,29.28
2022-08-03T09:34:17.874Z,29.34
2022-08-03T09:36:49.873Z,29.36
2022-08-03T09:39:40.574Z,29.52
2022-08-03T09:42:08.477Z,29.64
2022-08-03T09:44:42.715Z,29.63
2022-08-03T09:47:14.487Z,29.61
2022-08-03T09:49:43.210Z,29.84
2022-08-03T09:52:33.284Z,29.96
2022-08-03T09:56:32.513Z,30.00
2022-08-03T09:58:10.768Z,30.13
2022-08-03T10:01:04.158Z,30.12
2022-08-03T10:03:35.101Z,30.14
2022-08-03T10:06:22.287Z,30.15
2022-08-03T10:09:11.218Z,30.31
2022-08-03T10:11:42.048Z,30.34
2022-08-03T10:14:21.204Z,30.44
2022-08-03T10:16:48.566Z,30.53
2022-08-03T10:19:15.982Z,30.48
2022-08-03T10:21:53.622Z,30.50
2022-08-03T10:24:25.483Z,30.57
2022-08-03T10:26:57.009Z,30.65
2022-08-03T10:29:28.215Z,30.65
2022-08-03T10:31:58.908Z,30.74
2022-08-03T10:34:29.014Z,30.74
2022-08-03T10:36:58.754Z,30.91
2022-08-03T10:39:29.171Z,30.95
2022-08-03T10:41:59.858Z,30.94
2022-08-03T10:44:37.151Z,31.03
2022-08-03T10:47:04.966Z,31.07
2022-08-03T10:49:34.722Z,31.22
2022-08-03T10:52:12.837Z,31.23
2022-08-03T10:55:01.076Z,31.26
2022-08-03T10:57:42.986Z,31.34
2022-08-03T11:00:21.794Z,31.48
2022-08-03T11:03:06.787Z,31.48
2022-08-03T11:05:36.141Z,31.54
2022-08-03T11:08:37.050Z,31.63
2022-08-03T11:11:18.916Z,31.65
2022-08-03T11:14:05.337Z,31.70
2022-08-03T11:16:35.726Z,31.74
2022-08-03T11:19:04.927Z,31.69
2022-08-03T11:21:52.391Z,31.87
2022-08-03T11:24:37.229Z,31.94
2022-08-03T11:27:15.663Z,31.97
2022-08-03T11:30:04.057Z,32.03
2022-08-03T11:32:49.092Z,31.98
2022-08-03T11:35:16.905Z,32.04
2022-08-03T11:38:03.251Z,32.10
2022-08-03T11:40:47.361Z,32.11
2022-08-03T11:43:30.628Z,32.30
2022-08-03T11:46:02.120Z,32.29
2022-08-03T11:48:33.828Z,32.39
2022-08-03T11:51:01.639Z,32.50
2022-08-03T11:53:28.819Z,32.43
2022-08-03T11:55:59.674Z,32.44
2022-08-03T11:58:57.762Z,32.44
2022-08-03T12:01:21.252Z,32.51
2022-08-03T12:03:49.891Z,32.48
2022-08-03T12:06:18.078Z,32.52
2022-08-03T12:08:45.962Z,32.64
2022-08-03T12:11:15.997Z,32.70
2022-08-03T12:14:44.635Z,32.75
2022-08-03T12:16:32.118Z,32.74
2022-08-03T12:19:05.038Z,32.90
2022-08-03T12:21:32.300Z,33.05
2022-08-03T12:24:01.623Z,32.98
2022-08-03T12:26:30.091Z,32.98
2022-08-03T12:28:56.934Z,32.95
2022-08-03T12:31:23.561Z,32.96
2022-08-03T12:34:03.774Z,33.01
2022-08-03T12:36:32.897Z,33.05
2022-08-03T12:39:06.102Z,33.04
2022-08-03T12:41:35.462Z,33.03
2022-08-03T12:44:07.024Z,33.06
2022-08-03T12:46:38.047Z,33.01
2022-08-03T12:49:13.564Z,33.13
2022-08-03T12:51:42.839Z,33.04
2022-08-03T12:54:24.261Z,33.01
2022-08-03T12:57:04.565Z,33.03
2022-08-03T12:59:40.637Z,33.02
2022-08-03T13:02:14.353Z,33.14
2022-08-03T13:04:42.527Z,33.25
2022-08-03T13:07:12.866Z,33.32
2022-08-03T13:09:45.051Z,33.34
2022-08-03T13:12:17.889Z,33.33
2022-08-03T13:14:47.950Z,33.43
2022-08-03T13:17:17.201Z,33.51
2022-08-03T13:19:45.384Z,33.45
2022-08-03T13:22:17.310Z,33.53
2022-08-03T13:24:46.117Z,33.66
2022-08-03T13:28:04.929Z,33.57
2022-08-03T13:29:59.582Z,33.55
2022-08-03T13:32:26.146Z,33.45
2022-08-03T13:34:52.814Z,33.47
2022-08-03T13:37:19.502Z,33.60
2022-08-03T13:39:59.801Z,33.64
2022-08-03T13:42:30.552Z,33.67
2022-08-03T13:44:57.231Z,33.79
2022-08-03T13:47:23.883Z,33.85
2022-08-03T13:49:54.862Z,33.89
2022-08-03T13:52:27.829Z,33.85
2022-08-03T13:54:54.530Z,33.80
2022-08-03T13:58:02.724Z,33.86
2022-08-03T14:00:08.644Z,33.94
2022-08-03T14:02:35.368Z,33.99
2022-08-03T14:05:01.966Z,34.09
2022-08-03T14:07:28.576Z,34.03
2022-08-03T14:09:55.102Z,34.07
2022-08-03T14:12:21.605Z,34.06
2022-08-03T14:14:48.133Z,34.17
2022-08-03T14:17:16.321Z,34.21
2022-08-03T14:19:53.629Z,34.15
2022-08-03T14:22:21.760Z,34.14
2022-08-03T14:24:49.408Z,34.07
2022-08-03T14:27:16.735Z,34.10
2022-08-03T14:29:43.573Z,34.14
2022-08-03T14:32:13.203Z,34.30
2022-08-03T14:34:41.225Z,34.38
2022-08-03T14:37:08.246Z,34.54
2022-08-03T14:42:22.050Z,34.60
2022-08-03T14:44:48.675Z,34.57
2022-08-03T14:47:15.526Z,34.63
2022-08-03T14:50:36.344Z,34.74
2022-08-03T14:52:30.877Z,34.86
2022-08-03T14:54:57.886Z,34.93
2022-08-03T14:57:25.072Z,35.03
2022-08-03T14:59:55.475Z,34.95
2022-08-03T15:02:24.617Z,35.06
2022-08-03T15:04:52.699Z,35.10
2022-08-03T15:07:20.397Z,35.05
2022-08-03T15:09:47.744Z,35.27
2022-08-03T15:12:14.347Z,35.56
2022-08-03T15:14:41.086Z,35.77
2022-08-03T15:17:07.906Z,35.90
2022-08-03T15:20:00.264Z,36.09
2022-08-03T15:22:24.846Z,36.25
2022-08-03T15:24:52.324Z,36.47
2022-08-03T15:27:19.231Z,36.91
2022-08-03T15:30:07.647Z,37.32
2022-08-03T15:32:34.327Z,37.31
2022-08-03T15:35:01.154Z,37.41
2022-08-03T15:37:28.442Z,37.55
2022-08-03T15:40:00.069Z,37.81
2022-08-03T15:42:28.498Z,37.76
2022-08-03T15:44:55.831Z,37.95
2022-08-03T15:47:22.655Z,38.10
2022-08-03T15:49:49.735Z,38.09
2022-08-03T15:52:16.297Z,38.20
2022-08-03T15:54:42.956Z,38.09
2022-08-03T15:57:09.526Z,38.41
2022-08-03T15:59:36.067Z,38.55
2022-08-03T16:02:02.793Z,38.58
2022-08-03T16:04:29.436Z,38.60
2022-08-03T16:06:56.051Z,38.32
2022-08-03T16:09:24.053Z,38.34
2022-08-03T16:12:14.488Z,38.51
2022-08-03T16:14:51.931Z,38.65
2022-08-03T16:17:19.548Z,38.45
2022-08-03T16:19:46.350Z,38.36
2022-08-03T16:22:14.374Z,38.40
2022-08-03T16:24:41.359Z,38.18
2022-08-03T16:27:37.353Z,37.97
2022-08-03T16:29:54.760Z,37.72
2022-08-03T16:32:21.390Z,37.55
2022-08-03T16:34:48.249Z,37.53
2022-08-03T16:37:37.748Z,37.58
2022-08-03T16:40:02.771Z,37.04
2022-08-03T16:42:29.494Z,37.07
2022-08-03T16:44:56.031Z,36.89
2022-08-03T16:47:23.033Z,37.10
2022-08-03T16:49:56.101Z,37.42
2022-08-03T16:52:24.371Z,37.60
2022-08-03T16:54:53.786Z,37.75
2022-08-03T16:57:56.066Z,38.14
2022-08-03T17:00:32.870Z,38.00
2022-08-03T17:03:04.395Z,37.52
2022-08-03T17:05:47.460Z,37.25
2022-08-03T17:08:15.729Z,37.25
2022-08-03T17:10:45.279Z,37.04
2022-08-03T17:13:39.707Z,36.92
2022-08-03T17:16:04.365Z,36.80
2022-08-03T17:18:37.681Z,36.61
2022-08-03T17:21:10.508Z,36.54
2022-08-03T17:24:00.407Z,36.48
2022-08-03T17:26:30.492Z,36.34
2022-08-03T17:29:11.438Z,36.19
2022-08-03T17:31:48.974Z,36.16
2022-08-03T17:34:17.633Z,35.92
2022-08-03T17:39:56.106Z,35.72
2022-08-03T17:42:30.615Z,35.70
2022-08-03T17:45:02.152Z,35.68
2022-08-03T17:47:42.671Z,35.64
2022-08-03T17:50:23.959Z,35.58
2022-08-03T17:53:07.820Z,35.55
2022-08-03T17:55:57.277Z,35.38
2022-08-03T17:58:37.702Z,35.26
2022-08-03T18:01:58.287Z,35.14
2022-08-03T18:04:21.691Z,35.02
2022-08-03T18:06:59.523Z,34.84
2022-08-03T18:10:03.252Z,34.76
2022-08-03T18:12:27.164Z,34.71
2022-08-03T18:15:01.029Z,34.62
2022-08-03T18:17:55.603Z,34.52
2022-08-03T18:20:34.548Z,34.46
2022-08-03T18:23:06.869Z,34.31
2022-08-03T18:25:45.162Z,34.25
2022-08-03T18:28:18.546Z,34.14
2022-08-03T18:30:54.387Z,34.05
2022-08-03T18:34:19.213Z,34.34
2022-08-03T18:36:21.670Z,34.22
2022-08-03T18:38:51.864Z,34.02
2022-08-03T18:41:33.370Z,34.00
2022-08-03T18:44:06.674Z,33.82
2022-08-03T18:46:47.309Z,33.76
2022-08-03T18:49:20.438Z,33.70
2022-08-03T18:51:49.380Z,33.64
2022-08-03T18:54:51.740Z,33.56
2022-08-03T18:57:30.346Z,33.47
2022-08-03T19:00:15.033Z,33.39
2022-08-03T19:02:50.602Z,33.27
2022-08-03T19:05:23.545Z,33.21
2022-08-03T19:08:22.954Z,33.06
2022-08-03T19:11:02.983Z,33.00
2022-08-03T19:13:50.376Z,32.87
2022-08-03T19:16:30.461Z,32.87
2022-08-03T19:18:59.739Z,32.81
2022-08-03T19:21:28.998Z,32.73
2022-08-03T19:23:55.822Z,32.64
2022-08-03T19:26:30.872Z,32.54
2022-08-03T19:28:59.167Z,32.59
2022-08-03T19:34:15.311Z,32.48
2022-08-03T19:36:43.754Z,32.44
2022-08-03T19:39:12.552Z,32.36
2022-08-03T19:41:42.058Z,32.35
2022-08-03T19:44:13.139Z,32.30
2022-08-03T19:46:53.487Z,32.25
2022-08-03T19:49:23.739Z,32.17
2022-08-03T19:52:10.909Z,32.16
2022-08-03T19:54:53.643Z,32.12
2022-08-03T19:57:25.332Z,32.05
2022-08-03T19:59:53.837Z,32.06
2022-08-03T20:02:27.004Z,32.01
2022-08-03T20:04:59.584Z,31.96
2022-08-03T20:07:28.683Z,31.91
2022-08-03T20:09:56.533Z,31.89
2022-08-03T20:12:26.492Z,31.89
2022-08-03T20:14:57.492Z,31.83
2022-08-03T20:17:54.065Z,31.83
2022-08-03T20:20:12.136Z,31.77
2022-08-03T20:22:45.463Z,31.73
2022-08-03T20:25:16.273Z,31.70
2022-08-03T20:28:07.056Z,31.65
2022-08-03T20:30:36.930Z,31.64
2022-08-03T20:33:04.361Z,31.64
2022-08-03T20:35:32.598Z,31.62
2022-08-03T20:38:00.132Z,31.58
2022-08-03T20:40:27.433Z,31.57
2022-08-03T20:42:55.472Z,31.54
2022-08-03T20:46:00.322Z,31.49
2022-08-03T20:48:10.250Z,31.40
2022-08-03T20:50:39.222Z,31.44
2022-08-03T20:53:07.141Z,31.41
2022-08-03T20:55:47.608Z,31.43
2022-08-03T20:58:23.721Z,31.34
2022-08-03T21:00:51.483Z,31.34
2022-08-03T21:03:18.767Z,31.26
2022-08-03T21:05:51.690Z,31.26
2022-08-03T21:08:22.661Z,31.16
2022-08-03T21:10:52.523Z,31.11
2022-08-03T21:13:02.401Z,32.53
2022-08-03T21:13:35.276Z,31.06
2022-08-03T21:16:13.910Z,31.07
2022-08-03T21:18:51.816Z,31.04
2022-08-03T21:21:20.370Z,31.03
2022-08-03T21:23:50.675Z,31.00
2022-08-03T21:26:19.823Z,30.94
2022-08-03T21:28:56.969Z,30.94
2022-08-03T21:31:26.481Z,30.94
2022-08-03T21:33:58.390Z,30.91
2022-08-03T21:36:28.610Z,30.85
2022-08-03T21:38:57.410Z,30.82
2022-08-03T21:41:29.033Z,30.83
2022-08-03T21:43:55.974Z,30.83
2022-08-03T21:46:23.448Z,30.80
2022-08-03T21:48:56.191Z,30.79
2022-08-03T21:51:25.459Z,30.73
2022-08-03T21:54:03.838Z,30.74
2022-08-03T21:56:41.543Z,30.70
2022-08-03T21:59:19.802Z,30.69
2022-08-03T22:01:49.393Z,30.70
2022-08-03T22:04:50.315Z,30.63
2022-08-03T22:07:08.341Z,30.60
2022-08-03T22:09:36.141Z,30.56
2022-08-03T22:12:03.920Z,30.58
2022-08-03T22:14:33.012Z,30.55
2022-08-03T22:17:00.751Z,30.52
2022-08-03T22:19:32.700Z,30.47
2022-08-03T22:22:00.426Z,30.41
2022-08-03T22:24:30.210Z,30.41
2022-08-03T22:27:15.617Z,30.33
2022-08-03T22:29:43.232Z,30.31
2022-08-03T22:32:09.961Z,30.16
2022-08-03T22:34:37.399Z,30.06
2022-08-03T22:37:05.039Z,30.07
2022-08-03T22:39:32.145Z,29.97
2022-08-03T22:41:59.832Z,29.95
2022-08-03T22:44:27.268Z,29.90
2022-08-03T22:46:54.028Z,29.88
2022-08-03T22:49:22.177Z,29.78
2022-08-03T22:51:51.750Z,29.95
2022-08-03T22:54:19.551Z,30.00
2022-08-03T22:56:46.835Z,29.98
2022-08-03T22:59:40.784Z,29.96
2022-08-03T23:02:15.093Z,29.86
2022-08-03T23:04:51.935Z,29.78
2022-08-03T23:07:30.116Z,29.70
2022-08-03T23:09:58.082Z,29.61
2022-08-03T23:12:25.302Z,29.81
2022-08-03T23:14:59.617Z,29.85
2022-08-03T23:17:27.175Z,29.87
2022-08-03T23:19:55.753Z,29.87
2022-08-03T23:22:29.920Z,29.81
2022-08-03T23:24:58.910Z,29.76
2022-08-03T23:27:27.111Z,29.79
2022-08-03T23:29:54.023Z,29.70
2022-08-03T23:32:21.425Z,29.68
2022-08-03T23:35:08.447Z,29.71
2022-08-03T23:38:04.830Z,29.67
2022-08-03T23:40:25.969Z,29.68
2022-08-03T23:42:52.932Z,29.56
2022-08-03T23:45:20.891Z,29.49
2022-08-03T23:47:48.331Z,29.51
2022-08-03T23:50:15.106Z,29.62
2022-08-03T23:53:06.390Z,29.57
2022-08-03T23:56:10.155Z,29.57
2022-08-03T23:58:54.991Z,29.33
